Time;durP1;ratioP1;P1;durP2;ratioP2;P2;SDS_P1;SDS_P2;PMS_P1;PMS_P2;Temp;Humidity;BMP_temperature;BMP_pressure;BME280_temperature;BME280_humidity;BME280_pressure;Samples;Min_cycle;Max_cycle;Signal;HPM_P1;HPM_P2
2023/07/30 00:02:02;;;;;;;16.75;5.05;;;16.00;99.90;;;;;;5067913;27;269646;-68
2023/07/30 00:04:28;;;;;;;15.45;4.70;;;16.00;99.90;;;;;;5087289;28;20551;-68
2023/07/30 00:06:54;;;;;;;18.08;4.70;;;16.00;99.90;;;;;;5063002;28;264822;-68
2023/07/30 00:09:21;;;;;;;21.05;4.93;;;16.00;99.90;;;;;;5082449;28;20059;-68
2023/07/30 00:11:47;;;;;;;15.60;4.80;;;15.90;99.90;;;;;;5059808;28;257785;-69
2023/07/30 00:14:13;;;;;;;14.45;5.03;;;15.90;99.90;;;;;;5093686;27;20059;-69
2023/07/30 00:16:39;;;;;;;14.90;5.18;;;15.90;99.90;;;;;;5066058;28;266835;-69
2023/07/30 00:19:05;;;;;;;17.80;5.25;;;15.80;99.90;;;;;;5094184;27;20051;-68
2023/07/30 00:21:31;;;;;;;16.40;5.10;;;15.80;99.90;;;;;;5081725;28;20161;-68
2023/07/30 00:23:58;;;;;;;16.38;4.40;;;15.80;99.90;;;;;;5048190;28;372629;-67
2023/07/30 00:26:26;;;;;;;19.48;5.28;;;15.80;99.90;;;;;;5054732;28;20061;-67
2023/07/30 00:28:52;;;;;;;15.98;5.32;;;15.80;99.90;;;;;;5035980;28;69745;-69
2023/07/30 00:31:18;;;;;;;18.45;5.38;;;15.70;99.90;;;;;;5055258;28;20149;-68
2023/07/30 00:33:44;;;;;;;19.02;5.70;;;15.70;99.90;;;;;;5042247;28;209887;-72
2023/07/30 00:36:10;;;;;;;18.35;5.28;;;15.70;99.90;;;;;;5047812;28;20060;-68
2023/07/30 00:38:36;;;;;;;17.38;4.75;;;15.70;99.90;;;;;;5065968;27;270101;-69
2023/07/30 00:41:02;;;;;;;21.23;4.95;;;15.70;99.90;;;;;;5081047;28;20047;-69
2023/07/30 00:43:28;;;;;;;15.35;5.32;;;15.70;99.90;;;;;;5077077;27;260893;-69
2023/07/30 00:45:55;;;;;;;19.35;5.20;;;15.60;99.90;;;;;;5080563;28;20044;-69
2023/07/30 00:48:21;;;;;;;15.10;5.07;;;15.60;99.90;;;;;;5079608;27;108352;-68
2023/07/30 00:50:47;;;;;;;22.20;5.80;;;15.60;99.90;;;;;;5087013;28;20489;-68
2023/07/30 00:53:16;;;;;;;21.08;5.70;;;15.60;99.90;;;;;;5056583;28;141694;-68
2023/07/30 00:55:42;;;;;;;17.33;5.78;;;15.60;99.90;;;;;;5081731;28;20056;-67
2023/07/30 00:58:10;;;;;;;24.15;5.65;;;15.50;99.90;;;;;;5066901;28;25726;-68
2023/07/30 01:00:36;;;;;;;23.65;5.65;;;15.50;99.90;;;;;;5082812;28;20051;-68
2023/07/30 01:03:03;;;;;;;21.75;5.88;;;15.50;99.90;;;;;;5067579;28;133279;-68
2023/07/30 01:05:29;;;;;;;24.80;5.85;;;15.50;99.90;;;;;;5070264;28;20056;-69
2023/07/30 01:07:55;;;;;;;22.30;5.57;;;15.50;99.90;;;;;;5072253;28;253017;-69
2023/07/30 01:10:22;;;;;;;21.40;5.60;;;15.50;99.90;;;;;;5090487;27;20044;-67
2023/07/30 01:12:50;;;;;;;21.67;5.82;;;15.50;99.90;;;;;;5075664;28;278511;-69
2023/07/30 01:15:16;;;;;;;22.40;6.03;;;15.40;99.90;;;;;;5061617;28;20055;-67
2023/07/30 01:17:43;;;;;;;22.65;6.20;;;15.40;99.90;;;;;;5073699;28;138985;-69
2023/07/30 01:20:10;;;;;;;21.63;6.10;;;15.40;99.90;;;;;;5081322;28;20269;-68
2023/07/30 01:22:36;;;;;;;25.10;5.80;;;15.30;99.90;;;;;;5071869;28;276863;-69
2023/07/30 01:25:03;;;;;;;26.83;6.30;;;15.40;99.90;;;;;;5077555;28;20067;-68
2023/07/30 01:27:31;;;;;;;21.25;5.63;;;15.30;99.90;;;;;;5077164;28;260062;-69
2023/07/30 01:30:03;;;;;;;25.50;6.20;;;15.30;99.90;;;;;;5083049;28;20056;-68
2023/07/30 01:32:31;;;;;;;20.15;5.85;;;15.30;99.90;;;;;;5075363;28;124826;-68
2023/07/30 01:34:58;;;;;;;26.60;5.97;;;15.30;99.90;;;;;;5092060;28;20054;-68
2023/07/30 01:37:25;;;;;;;26.63;5.90;;;15.30;99.90;;;;;;5072169;28;259571;-69
2023/07/30 01:39:51;;;;;;;24.75;6.63;;;15.20;99.90;;;;;;5085534;27;20060;-68
2023/07/30 01:42:18;;;;;;;22.90;6.50;;;15.20;99.90;;;;;;5067914;28;271922;-68
2023/07/30 01:44:44;;;;;;;23.90;6.50;;;15.20;99.90;;;;;;5080277;28;20059;-68
2023/07/30 01:47:10;;;;;;;23.65;6.38;;;15.20;99.90;;;;;;5067561;28;20122;-68
2023/07/30 01:49:36;;;;;;;24.65;6.47;;;15.20;99.90;;;;;;5083557;28;20063;-67
2023/07/30 01:52:02;;;;;;;23.60;6.10;;;15.20;99.90;;;;;;5054072;28;269558;-67
2023/07/30 01:54:28;;;;;;;23.42;6.10;;;15.10;99.90;;;;;;5072976;28;20155;-68
2023/07/30 01:56:55;;;;;;;22.38;6.00;;;15.10;99.90;;;;;;5070336;28;273441;-68
2023/07/30 01:59:21;;;;;;;27.33;6.32;;;15.10;99.90;;;;;;5085680;28;20059;-68
2023/07/30 02:01:47;;;;;;;25.70;6.22;;;15.10;99.90;;;;;;5066202;28;269766;-69
2023/07/30 02:04:13;;;;;;;25.73;5.95;;;15.10;99.90;;;;;;5086394;28;20055;-68
2023/07/30 02:06:39;;;;;;;24.43;6.00;;;15.10;99.90;;;;;;5066925;28;253621;-68
2023/07/30 02:09:05;;;;;;;25.13;6.15;;;15.10;99.90;;;;;;5096316;28;20485;-68
2023/07/30 02:11:31;;;;;;;23.75;5.93;;;15.10;99.90;;;;;;5086254;28;20501;-68
2023/07/30 02:13:57;;;;;;;25.35;6.43;;;15.10;99.90;;;;;;5067179;28;20056;-68
2023/07/30 02:16:24;;;;;;;25.58;5.45;;;15.00;99.90;;;;;;5080445;28;20051;-68
2023/07/30 02:18:50;;;;;;;23.08;5.85;;;15.00;99.90;;;;;;5072610;28;274996;-68
2023/07/30 02:21:16;;;;;;;23.40;6.10;;;15.00;99.90;;;;;;5078147;28;20059;-67
2023/07/30 02:23:42;;;;;;;26.60;5.75;;;15.00;99.90;;;;;;5076109;28;267750;-67
2023/07/30 02:26:08;;;;;;;19.55;6.00;;;15.00;99.90;;;;;;5079791;28;20679;-67
2023/07/30 02:28:34;;;;;;;23.17;5.80;;;15.00;99.90;;;;;;5070439;28;269877;-69
2023/07/30 02:31:00;;;;;;;27.35;5.97;;;15.00;99.90;;;;;;5077457;28;20063;-68
2023/07/30 02:33:26;;;;;;;29.40;6.00;;;15.00;99.90;;;;;;5082181;28;268855;-68
2023/07/30 02:35:52;;;;;;;24.83;6.13;;;15.00;99.90;;;;;;5083116;28;20061;-68
2023/07/30 02:38:18;;;;;;;19.42;5.25;;;15.00;99.90;;;;;;5066728;28;265731;-67
2023/07/30 02:40:44;;;;;;;24.67;6.18;;;15.00;99.90;;;;;;5077010;28;20063;-68
2023/07/30 02:43:11;;;;;;;23.60;6.45;;;15.00;99.90;;;;;;5068058;28;257497;-68
2023/07/30 02:45:38;;;;;;;23.92;5.80;;;15.00;99.90;;;;;;5080211;28;20060;-68
2023/07/30 02:48:04;;;;;;;21.25;6.15;;;15.00;99.90;;;;;;5071231;28;259776;-69
2023/07/30 02:50:30;;;;;;;24.33;5.85;;;15.00;99.90;;;;;;5075728;28;20605;-68
2023/07/30 02:52:57;;;;;;;19.92;6.13;;;15.00;99.90;;;;;;5055855;28;262435;-68
2023/07/30 02:55:23;;;;;;;21.95;5.45;;;15.10;99.90;;;;;;5083509;28;20063;-68
2023/07/30 02:57:49;;;;;;;26.15;5.53;;;15.10;99.90;;;;;;5066739;28;272685;-68
2023/07/30 03:00:15;;;;;;;29.30;6.15;;;15.10;99.90;;;;;;5077653;28;20055;-68
2023/07/30 03:02:41;;;;;;;19.85;5.53;;;15.10;99.90;;;;;;5065546;28;276580;-68
2023/07/30 03:05:08;;;;;;;23.27;4.88;;;15.10;99.90;;;;;;5083665;28;20053;-68
2023/07/30 03:07:35;;;;;;;24.13;5.65;;;15.10;99.90;;;;;;5066715;28;253364;-68
2023/07/30 03:10:01;;;;;;;20.77;5.00;;;15.10;99.90;;;;;;5093055;28;20044;-68
2023/07/30 03:12:28;;;;;;;20.17;4.93;;;15.10;99.90;;;;;;5071780;28;251248;-68
2023/07/30 03:14:54;;;;;;;20.35;5.05;;;15.10;99.90;;;;;;5075983;28;20466;-67
2023/07/30 03:17:20;;;;;;;20.55;4.18;;;15.10;99.90;;;;;;5073076;28;266353;-68
2023/07/30 03:19:46;;;;;;;19.13;5.03;;;15.10;99.90;;;;;;5085703;28;20047;-67
2023/07/30 03:22:13;;;;;;;19.13;4.88;;;15.10;99.90;;;;;;5059374;28;261351;-67
2023/07/30 03:24:39;;;;;;;21.92;4.57;;;15.10;99.90;;;;;;5092547;28;20056;-67
2023/07/30 03:27:05;;;;;;;20.67;4.70;;;15.00;99.90;;;;;;5066090;28;274204;-66
2023/07/30 03:29:32;;;;;;;21.40;4.70;;;15.00;99.90;;;;;;5083425;28;20047;-67
2023/07/30 03:31:58;;;;;;;25.88;5.20;;;15.00;99.90;;;;;;5066525;28;272907;-67
2023/07/30 03:34:24;;;;;;;22.23;4.60;;;15.10;99.90;;;;;;5084203;28;20056;-67
2023/07/30 03:36:50;;;;;;;16.48;4.20;;;15.00;99.90;;;;;;5068316;28;253032;-67
2023/07/30 03:39:16;;;;;;;20.20;4.40;;;15.00;99.90;;;;;;5100544;28;20056;-67
2023/07/30 03:41:43;;;;;;;18.00;4.43;;;15.00;99.90;;;;;;5070201;28;259526;-68
2023/07/30 03:44:09;;;;;;;24.50;5.18;;;15.00;99.90;;;;;;5095162;28;20048;-67
2023/07/30 03:46:35;;;;;;;24.73;4.40;;;15.00;99.90;;;;;;5066538;28;262907;-68
2023/07/30 03:49:01;;;;;;;29.77;4.85;;;15.00;99.90;;;;;;5077521;28;20123;-67
2023/07/30 03:51:27;;;;;;;18.77;4.63;;;14.90;99.90;;;;;;5088636;28;20493;-67
2023/07/30 03:53:53;;;;;;;20.33;4.50;;;14.90;99.90;;;;;;5043649;28;131574;-67
2023/07/30 03:56:20;;;;;;;16.90;4.43;;;14.90;99.90;;;;;;5087811;28;20056;-67
2023/07/30 03:58:46;;;;;;;21.67;4.75;;;14.90;99.90;;;;;;5067788;28;40244;-68
2023/07/30 04:01:12;;;;;;;22.60;4.65;;;14.90;99.90;;;;;;5090159;28;20056;-67
2023/07/30 04:03:38;;;;;;;22.90;4.30;;;14.80;99.90;;;;;;5061148;28;115682;-67
2023/07/30 04:06:04;;;;;;;17.35;4.13;;;14.80;99.90;;;;;;5088154;28;20044;-67
2023/07/30 04:08:30;;;;;;;23.23;4.40;;;14.80;99.90;;;;;;5078073;28;287941;-67
2023/07/30 04:10:56;;;;;;;17.40;4.25;;;14.70;99.90;;;;;;5085152;28;20524;-67
2023/07/30 04:13:23;;;;;;;19.00;4.50;;;14.70;99.90;;;;;;5071914;28;273354;-67
2023/07/30 04:15:49;;;;;;;20.40;4.45;;;14.70;99.90;;;;;;5078934;28;20051;-67
2023/07/30 04:18:15;;;;;;;20.98;4.35;;;14.80;99.90;;;;;;5069103;28;181793;-67
2023/07/30 04:20:41;;;;;;;18.90;4.30;;;14.70;99.90;;;;;;5087595;28;20162;-67
2023/07/30 04:23:07;;;;;;;18.08;4.00;;;14.70;99.90;;;;;;5070414;28;266686;-67
2023/07/30 04:25:33;;;;;;;20.77;4.60;;;14.80;99.90;;;;;;5087494;28;20048;-67
2023/07/30 04:27:59;;;;;;;19.42;4.43;;;14.70;99.90;;;;;;5081815;28;249465;-67
2023/07/30 04:30:25;;;;;;;19.42;4.15;;;14.80;99.90;;;;;;5090538;28;20044;-67
2023/07/30 04:32:51;;;;;;;16.25;4.20;;;14.70;99.90;;;;;;5063620;28;194945;-67
2023/07/30 04:35:17;;;;;;;16.42;4.45;;;14.80;99.90;;;;;;5088913;28;20413;-67
2023/07/30 04:37:44;;;;;;;18.80;4.22;;;14.80;99.90;;;;;;5067221;28;260121;-67
2023/07/30 04:40:10;;;;;;;16.52;4.20;;;14.80;99.90;;;;;;5094600;28;20466;-67
2023/07/30 04:42:36;;;;;;;17.77;4.15;;;14.90;99.90;;;;;;5069916;28;232032;-68
2023/07/30 04:45:03;;;;;;;18.23;3.85;;;15.00;99.90;;;;;;5084334;28;20070;-67
2023/07/30 04:47:29;;;;;;;18.25;4.15;;;15.00;99.90;;;;;;5063064;28;266608;-67
2023/07/30 04:49:55;;;;;;;18.60;4.55;;;15.10;99.90;;;;;;5087212;28;20063;-67
2023/07/30 04:52:21;;;;;;;23.10;5.05;;;15.10;99.90;;;;;;5054598;28;256810;-67
2023/07/30 04:54:47;;;;;;;16.63;4.47;;;15.20;99.90;;;;;;5086866;28;20052;-67
2023/07/30 04:57:13;;;;;;;21.85;4.50;;;15.20;99.90;;;;;;5060701;28;268762;-67
2023/07/30 04:59:39;;;;;;;21.20;4.43;;;15.30;99.90;;;;;;5086449;28;20051;-67
2023/07/30 05:02:05;;;;;;;20.63;4.43;;;15.30;99.90;;;;;;5069227;28;258934;-67
2023/07/30 05:04:31;;;;;;;19.00;4.07;;;15.40;99.90;;;;;;5094304;28;20063;-67
2023/07/30 05:06:57;;;;;;;18.48;4.28;;;15.50;99.90;;;;;;5066345;28;265449;-67
2023/07/30 05:09:24;;;;;;;26.75;4.60;;;15.50;99.90;;;;;;5097453;28;20052;-68
2023/07/30 05:11:50;;;;;;;22.43;4.57;;;15.50;99.90;;;;;;5069928;28;272954;-67
2023/07/30 05:14:16;;;;;;;21.85;4.30;;;15.60;99.90;;;;;;5095195;28;20071;-67
2023/07/30 05:16:42;;;;;;;20.67;4.32;;;15.60;99.90;;;;;;5069056;28;253256;-67
2023/07/30 05:19:08;;;;;;;19.92;4.50;;;15.60;99.90;;;;;;5095635;28;20102;-67
2023/07/30 05:21:34;;;;;;;19.83;4.70;;;15.70;99.90;;;;;;5066310;28;270532;-68
2023/07/30 05:24:00;;;;;;;23.42;5.05;;;15.70;99.90;;;;;;5092248;28;20055;-68
2023/07/30 05:26:26;;;;;;;23.13;4.80;;;15.80;99.90;;;;;;5088347;28;20394;-68
2023/07/30 05:28:52;;;;;;;18.63;4.47;;;15.80;99.90;;;;;;5070440;28;267326;-68
2023/07/30 05:31:19;;;;;;;20.55;4.70;;;15.80;99.90;;;;;;5085948;28;20054;-67
2023/07/30 05:33:45;;;;;;;19.83;4.18;;;15.90;99.90;;;;;;5080998;28;255006;-68
2023/07/30 05:36:11;;;;;;;18.83;5.10;;;15.90;99.90;;;;;;5082340;28;20052;-67
2023/07/30 05:38:37;;;;;;;17.48;4.18;;;15.90;99.90;;;;;;5070713;28;278897;-68
2023/07/30 05:41:03;;;;;;;20.63;4.40;;;16.00;99.90;;;;;;5088241;28;20340;-67
2023/07/30 05:43:29;;;;;;;17.55;4.50;;;16.00;99.90;;;;;;5075238;28;252976;-67
2023/07/30 05:45:55;;;;;;;21.70;4.43;;;16.00;99.90;;;;;;5085262;28;20056;-68
2023/07/30 05:48:21;;;;;;;21.30;5.20;;;16.10;99.90;;;;;;5070269;28;224546;-67
2023/07/30 05:50:47;;;;;;;18.63;4.45;;;16.20;99.90;;;;;;5086655;28;20047;-67
2023/07/30 05:53:13;;;;;;;17.85;4.10;;;16.20;99.90;;;;;;5055042;28;266493;-67
2023/07/30 05:55:39;;;;;;;18.50;4.85;;;16.20;99.90;;;;;;5081105;28;20474;-68
2023/07/30 05:58:05;;;;;;;17.90;4.35;;;16.30;99.90;;;;;;5062672;28;255132;-67
2023/07/30 06:00:32;;;;;;;21.23;4.60;;;16.40;99.90;;;;;;5085527;28;20044;-67
2023/07/30 06:02:58;;;;;;;22.25;4.43;;;16.40;99.90;;;;;;5064655;28;250862;-68
2023/07/30 06:05:24;;;;;;;20.02;4.55;;;16.40;99.90;;;;;;5085522;28;20417;-67
2023/07/30 06:07:50;;;;;;;21.83;4.75;;;16.40;99.90;;;;;;5076996;27;270471;-67
2023/07/30 06:10:16;;;;;;;20.75;4.80;;;16.40;99.90;;;;;;5091868;28;20144;-68
2023/07/30 06:12:42;;;;;;;23.77;4.82;;;16.40;99.90;;;;;;5067636;28;262969;-67
2023/07/30 06:15:09;;;;;;;21.50;4.95;;;16.50;99.90;;;;;;5091977;28;20051;-67
2023/07/30 06:17:35;;;;;;;20.08;4.53;;;16.50;99.90;;;;;;5069961;28;253881;-67
2023/07/30 06:20:02;;;;;;;21.65;4.80;;;16.40;99.90;;;;;;5093583;28;20555;-69
2023/07/30 06:22:28;;;;;;;22.40;4.97;;;16.40;99.90;;;;;;5074149;28;270349;-68
2023/07/30 06:24:54;;;;;;;26.42;5.22;;;16.40;99.90;;;;;;5084606;28;20052;-68
2023/07/30 06:27:20;;;;;;;22.70;5.13;;;16.50;99.90;;;;;;5068237;28;254717;-67
2023/07/30 06:29:47;;;;;;;18.90;4.70;;;16.50;99.90;;;;;;5084199;28;20422;-68
2023/07/30 06:32:13;;;;;;;21.40;5.13;;;16.60;99.90;;;;;;5072901;28;260869;-67
2023/07/30 06:34:39;;;;;;;21.58;5.15;;;16.70;99.90;;;;;;5091811;28;20052;-67
2023/07/30 06:37:05;;;;;;;23.88;4.85;;;16.70;99.90;;;;;;5065110;28;258378;-67
2023/07/30 06:39:31;;;;;;;20.75;4.57;;;16.80;99.90;;;;;;5092344;28;20060;-67
2023/07/30 06:41:57;;;;;;;22.85;4.85;;;16.90;99.90;;;;;;5071057;28;259659;-67
2023/07/30 06:44:25;;;;;;;21.40;4.82;;;17.10;99.90;;;;;;5097300;28;20059;-67
2023/07/30 06:46:51;;;;;;;18.63;4.47;;;17.10;99.90;;;;;;5066273;28;270876;-66
2023/07/30 06:49:17;;;;;;;20.08;4.47;;;17.00;99.90;;;;;;5086034;28;20417;-68
2023/07/30 06:51:43;;;;;;;20.98;4.72;;;17.30;99.90;;;;;;5054471;28;260132;-66
2023/07/30 06:54:09;;;;;;;20.27;4.57;;;17.40;99.90;;;;;;5086551;28;20048;-67
2023/07/30 06:56:35;;;;;;;21.63;4.47;;;17.50;99.90;;;;;;5066479;28;270822;-67
2023/07/30 06:59:03;;;;;;;18.85;4.10;;;17.70;99.90;;;;;;5082143;28;20052;-68
2023/07/30 07:01:29;;;;;;;26.17;5.47;;;18.00;99.90;;;;;;5085461;28;20055;-69
2023/07/30 07:03:55;;;;;;;20.98;4.30;;;18.00;99.90;;;;;;5068858;28;182469;-68
2023/07/30 07:06:21;;;;;;;22.02;4.60;;;18.10;99.90;;;;;;5087597;28;20056;-69
2023/07/30 07:08:47;;;;;;;21.02;4.22;;;18.20;99.90;;;;;;5080752;28;257174;-68
2023/07/30 07:11:13;;;;;;;18.73;4.35;;;18.30;99.90;;;;;;5083568;28;20048;-68
2023/07/30 07:13:39;;;;;;;20.77;4.25;;;18.20;99.90;;;;;;5070747;28;264043;-66
2023/07/30 07:16:06;;;;;;;18.45;4.32;;;18.00;99.90;;;;;;5089240;28;20040;-68
2023/07/30 07:18:32;;;;;;;19.00;4.38;;;18.00;99.90;;;;;;5078269;28;265045;-68
2023/07/30 07:20:58;;;;;;;20.27;3.92;;;18.00;99.90;;;;;;5088603;28;20055;-69
2023/07/30 07:23:24;;;;;;;24.52;4.15;;;17.90;99.90;;;;;;5079338;27;269156;-68
2023/07/30 07:25:51;;;;;;;21.70;3.70;;;17.90;99.90;;;;;;5090946;28;20032;-67
2023/07/30 07:28:18;;;;;;;15.70;3.50;;;18.00;99.90;;;;;;5071429;28;262536;-68
2023/07/30 07:30:44;;;;;;;21.30;3.85;;;18.10;99.90;;;;;;5083900;28;20047;-67
2023/07/30 07:33:12;;;;;;;17.27;3.50;;;18.10;99.90;;;;;;5080294;27;273723;-68
2023/07/30 07:35:39;;;;;;;17.90;3.63;;;18.10;99.90;;;;;;5087390;28;20233;-68
2023/07/30 07:38:06;;;;;;;19.45;3.60;;;18.30;99.90;;;;;;5078226;28;127405;-67
2023/07/30 07:40:42;;;;;;;17.95;3.05;;;18.40;99.90;;;;;;5089454;28;20070;-68
2023/07/30 07:43:08;;;;;;;16.33;3.65;;;18.60;99.90;;;;;;5074944;28;273901;-68
2023/07/30 07:45:35;;;;;;;13.57;2.47;;;18.60;99.90;;;;;;5091813;28;20052;-69
2023/07/30 07:48:01;;;;;;;16.48;3.03;;;18.70;99.90;;;;;;5070856;28;266985;-68
2023/07/30 07:50:27;;;;;;;19.05;3.15;;;18.90;99.90;;;;;;5088579;28;20055;-68
2023/07/30 07:52:53;;;;;;;15.80;2.58;;;19.00;99.90;;;;;;5058734;28;256476;-68
2023/07/30 07:55:19;;;;;;;16.58;2.75;;;19.00;99.90;;;;;;5088335;28;20502;-67
2023/07/30 07:57:45;;;;;;;16.73;3.25;;;19.00;99.90;;;;;;5071815;28;67152;-67
2023/07/30 08:00:11;;;;;;;16.60;3.17;;;18.90;99.90;;;;;;5087265;28;20048;-67
2023/07/30 08:02:37;;;;;;;16.17;2.90;;;19.00;99.90;;;;;;5067921;28;252750;-68
2023/07/30 08:05:04;;;;;;;14.77;2.70;;;19.40;99.90;;;;;;5094109;28;20151;-68
2023/07/30 08:07:30;;;;;;;15.80;3.17;;;19.60;99.90;;;;;;5073073;28;261395;-68
2023/07/30 08:09:56;;;;;;;17.33;3.05;;;19.40;99.90;;;;;;5086925;28;20510;-70
2023/07/30 08:12:22;;;;;;;24.33;3.45;;;19.20;99.90;;;;;;5071961;28;175754;-72
2023/07/30 08:14:48;;;;;;;24.95;4.45;;;18.60;99.90;;;;;;5069259;28;20107;-76
2023/07/30 08:17:14;;;;;;;20.25;3.42;;;17.80;99.90;;;;;;5061478;28;89907;-73
2023/07/30 08:19:40;;;;;;;19.02;3.47;;;16.90;99.90;;;;;;5082198;28;20525;-72
2023/07/30 08:22:06;;;;;;;24.73;3.53;;;16.50;99.90;;;;;;5074652;28;259718;-70
2023/07/30 08:24:32;;;;;;;14.38;2.90;;;16.20;99.90;;;;;;5098384;28;20071;-69
2023/07/30 08:26:59;;;;;;;16.77;2.60;;;16.00;99.90;;;;;;5070072;28;193781;-69
2023/07/30 08:29:26;;;;;;;17.65;2.92;;;15.80;99.90;;;;;;5078833;28;20059;-68
2023/07/30 08:31:52;;;;;;;18.08;3.03;;;15.70;99.90;;;;;;5069841;28;269866;-68
2023/07/30 08:34:18;;;;;;;16.50;2.83;;;15.70;99.90;;;;;;5083234;28;20067;-67
2023/07/30 08:36:44;;;;;;;16.15;2.90;;;15.60;99.90;;;;;;5066102;28;257659;-67
2023/07/30 08:39:10;;;;;;;16.15;2.92;;;15.40;99.90;;;;;;5060210;28;20058;-67
2023/07/30 08:41:36;;;;;;;16.95;2.95;;;15.30;99.90;;;;;;5069732;28;255889;-68
2023/07/30 08:44:02;;;;;;;16.25;2.75;;;15.30;99.90;;;;;;5093547;28;20048;-68
2023/07/30 08:46:28;;;;;;;20.67;3.45;;;15.20;99.90;;;;;;5085902;28;20052;-68
2023/07/30 08:48:57;;;;;;;18.58;3.17;;;15.30;99.90;;;;;;5057178;28;67437;-68
2023/07/30 08:51:24;;;;;;;19.27;2.85;;;15.30;99.90;;;;;;5086234;28;20059;-68
2023/07/30 08:53:51;;;;;;;15.43;2.90;;;15.40;99.90;;;;;;5045303;28;226277;-68
2023/07/30 08:56:18;;;;;;;19.40;3.50;;;15.40;99.90;;;;;;5082699;28;20048;-69
2023/07/30 08:58:45;;;;;;;16.52;3.45;;;15.60;99.90;;;;;;5050879;28;207008;-69
2023/07/30 09:01:14;;;;;;;19.40;3.25;;;15.70;99.90;;;;;;5086874;28;20056;-69
2023/07/30 09:03:41;;;;;;;15.77;3.05;;;15.80;99.90;;;;;;5050004;28;256336;-68
2023/07/30 09:06:07;;;;;;;23.60;3.70;;;16.00;99.90;;;;;;5086719;28;20075;-68
2023/07/30 09:08:33;;;;;;;17.05;3.22;;;16.20;99.90;;;;;;5081309;28;275168;-68
2023/07/30 09:11:10;;;;;;;21.20;3.50;;;16.30;99.90;;;;;;5090131;28;20048;-68
2023/07/30 09:13:41;;;;;;;16.92;3.40;;;16.30;99.90;;;;;;5082659;28;258703;-69
2023/07/30 09:16:11;;;;;;;20.13;3.53;;;16.20;99.90;;;;;;5087003;28;20044;-70
2023/07/30 09:18:55;;;;;;;16.97;3.50;;;16.10;99.90;;;;;;5073251;28;119493;-71
2023/07/30 09:21:34;;;;;;;18.58;3.50;;;15.90;99.90;;;;;;5077402;28;20139;-72
2023/07/30 09:24:06;;;;;;;16.13;3.00;;;15.70;99.90;;;;;;5073748;28;20048;-71
2023/07/30 09:26:46;;;;;;;15.13;2.65;;;15.50;99.90;;;;;;5081017;28;264829;-71
2023/07/30 09:29:12;;;;;;;14.95;2.63;;;15.30;99.90;;;;;;5087075;28;20849;-70
2023/07/30 09:31:50;;;;;;;15.38;2.55;;;15.30;99.90;;;;;;5062368;28;273272;-70
2023/07/30 09:34:20;;;;;;;12.73;2.63;;;15.20;99.90;;;;;;5075900;28;20122;-70
2023/07/30 09:36:47;;;;;;;12.50;2.28;;;15.30;99.90;;;;;;5062189;28;255662;-70
2023/07/30 09:39:24;;;;;;;14.82;2.38;;;15.20;99.90;;;;;;5092705;28;20044;-70
2023/07/30 09:41:52;;;;;;;11.23;2.17;;;15.20;99.90;;;;;;5069003;28;265193;-69
2023/07/30 09:44:19;;;;;;;11.02;2.10;;;15.20;99.90;;;;;;5069269;28;20051;-68
2023/07/30 09:46:48;;;;;;;10.27;1.83;;;15.20;99.90;;;;;;5068636;28;259310;-68
2023/07/30 09:49:15;;;;;;;9.48;1.90;;;15.30;99.90;;;;;;5077124;28;20048;-68
2023/07/30 09:51:42;;;;;;;11.27;2.35;;;15.30;99.90;;;;;;5052828;28;274160;-70
2023/07/30 09:54:11;;;;;;;10.73;1.88;;;15.30;99.90;;;;;;5087431;28;20763;-68
2023/07/30 09:56:39;;;;;;;8.40;1.85;;;15.40;99.90;;;;;;5063888;28;259349;-68
2023/07/30 09:59:09;;;;;;;8.10;1.67;;;15.50;99.90;;;;;;5082422;28;20059;-68
2023/07/30 10:01:41;;;;;;;7.90;1.63;;;15.60;99.90;;;;;;5068248;28;278785;-67
2023/07/30 10:04:09;;;;;;;8.88;1.75;;;15.60;99.90;;;;;;5079803;28;20457;-69
2023/07/30 10:06:40;;;;;;;10.48;1.80;;;15.80;99.90;;;;;;5067053;28;262321;-69
2023/07/30 10:09:08;;;;;;;10.57;2.03;;;16.00;99.90;;;;;;5096172;28;20044;-70
2023/07/30 10:11:36;;;;;;;9.25;1.90;;;16.00;99.90;;;;;;5068119;28;255941;-68
2023/07/30 10:14:03;;;;;;;11.70;2.30;;;16.10;99.90;;;;;;5074813;28;20052;-70
2023/07/30 10:16:29;;;;;;;9.02;2.10;;;16.30;99.90;;;;;;5081613;28;20040;-70
2023/07/30 10:18:57;;;;;;;10.23;1.90;;;16.60;99.90;;;;;;5082185;28;248281;-70
2023/07/30 10:21:25;;;;;;;12.25;2.10;;;16.80;99.90;;;;;;5083963;28;20449;-70
2023/07/30 10:24:05;;;;;;;9.63;1.90;;;17.20;99.90;;;;;;5070064;28;261235;-69
2023/07/30 10:26:33;;;;;;;10.77;2.40;;;17.40;99.90;;;;;;5085473;28;20052;-71
2023/07/30 10:29:17;;;;;;;13.18;2.10;;;18.20;99.90;;;;;;5058090;28;20052;-69
2023/07/30 10:31:57;;;;;;;12.67;2.20;;;18.90;99.90;;;;;;5065971;28;256713;-69
2023/07/30 10:34:42;;;;;;;11.10;2.00;;;19.30;99.90;;;;;;5095285;28;20048;-70
2023/07/30 10:37:08;;;;;;;11.30;2.50;;;19.40;99.90;;;;;;5058345;28;242012;-70
2023/07/30 10:39:35;;;;;;;13.45;2.40;;;19.80;99.90;;;;;;5085972;28;20134;-70
2023/07/30 10:42:01;;;;;;;10.52;2.00;;;20.30;99.90;;;;;;5076545;28;253309;-69
2023/07/30 10:44:27;;;;;;;13.07;2.13;;;20.30;99.90;;;;;;5101170;28;20075;-69
2023/07/30 10:46:54;;;;;;;9.98;1.90;;;20.50;99.90;;;;;;5072273;28;266147;-70
2023/07/30 10:49:21;;;;;;;11.55;2.25;;;20.90;99.90;;;;;;5063158;28;20091;-70
2023/07/30 10:51:47;;;;;;;13.70;2.20;;;21.20;99.90;;;;;;5060448;28;260069;-70
2023/07/30 10:54:15;;;;;;;11.00;1.80;;;21.40;99.90;;;;;;5092023;28;20063;-69
2023/07/30 10:56:42;;;;;;;12.73;2.33;;;21.20;99.90;;;;;;5064317;28;258897;-70
2023/07/30 10:59:09;;;;;;;9.10;1.77;;;21.50;99.90;;;;;;5089763;28;20052;-68
2023/07/30 11:01:43;;;;;;;16.83;2.33;;;21.10;99.90;;;;;;5070006;28;275398;-71
2023/07/30 11:04:18;;;;;;;12.60;2.38;;;21.40;99.90;;;;;;5092452;28;20035;-71
2023/07/30 11:06:47;;;;;;;10.57;2.03;;;21.00;99.90;;;;;;5070322;28;269383;-72
2023/07/30 11:09:27;;;;;;;11.73;1.80;;;20.50;99.90;;;;;;5086675;28;20063;-72
2023/07/30 11:11:55;;;;;;;11.32;2.10;;;20.50;99.90;;;;;;5071656;28;269857;-70
2023/07/30 11:14:25;;;;;;;10.15;1.90;;;20.50;99.90;;;;;;5087935;28;20661;-71
2023/07/30 11:16:54;;;;;;;13.13;2.28;;;20.30;99.90;;;;;;5069017;28;267934;-71
2023/07/30 11:19:20;;;;;;;14.10;1.95;;;20.40;99.90;;;;;;5096867;28;20048;-70
2023/07/30 11:21:48;;;;;;;13.88;2.25;;;20.60;99.90;;;;;;5073441;28;270484;-71
2023/07/30 11:24:14;;;;;;;15.27;2.08;;;20.90;99.90;;;;;;5091505;27;20359;-71
2023/07/30 11:26:42;;;;;;;12.63;2.00;;;21.30;99.90;;;;;;5067564;28;260219;-70
2023/07/30 11:29:19;;;;;;;13.70;2.33;;;21.50;99.90;;;;;;5100861;28;20545;-70
2023/07/30 11:31:47;;;;;;;13.73;2.13;;;21.80;99.90;;;;;;5069495;28;263505;-71
2023/07/30 11:34:14;;;;;;;12.70;1.88;;;22.30;99.90;;;;;;5100514;28;20619;-71
2023/07/30 11:36:43;;;;;;;9.60;1.83;;;22.50;99.90;;;;;;5070156;28;256394;-71
2023/07/30 11:39:10;;;;;;;10.10;1.77;;;22.70;99.90;;;;;;5093474;28;20506;-71
2023/07/30 11:41:37;;;;;;;12.23;1.70;;;22.80;99.90;;;;;;5071421;28;270341;-70
2023/07/30 11:44:04;;;;;;;11.55;2.00;;;22.70;99.90;;;;;;5096266;28;20553;-72
2023/07/30 11:46:32;;;;;;;10.95;1.70;;;23.00;99.90;;;;;;5090277;28;20039;-71
2023/07/30 11:49:14;;;;;;;13.05;2.00;;;23.00;99.90;;;;;;5077458;28;20044;-72
2023/07/30 11:51:41;;;;;;;13.70;1.98;;;23.00;99.10;;;;;;5054080;28;274300;-71
2023/07/30 11:54:17;;;;;;;10.40;1.88;;;23.10;99.40;;;;;;5057523;28;20048;-71
2023/07/30 11:56:43;;;;;;;9.90;2.00;;;23.20;99.90;;;;;;5063877;28;242645;-71
2023/07/30 11:59:09;;;;;;;12.77;2.00;;;23.10;98.90;;;;;;5087731;28;20048;-71
2023/07/30 12:01:36;;;;;;;10.57;1.70;;;22.50;99.90;;;;;;5071981;28;254996;-71
2023/07/30 12:04:05;;;;;;;11.52;1.80;;;21.80;99.90;;;;;;5085550;27;20059;-70
2023/07/30 12:06:44;;;;;;;11.60;2.17;;;21.40;99.90;;;;;;5088813;28;20044;-71
2023/07/30 12:09:25;;;;;;;12.88;2.40;;;21.20;99.90;;;;;;5074081;28;20043;-69
2023/07/30 12:11:53;;;;;;;10.13;1.75;;;21.40;99.90;;;;;;5067990;28;262101;-69
2023/07/30 12:14:25;;;;;;;9.88;2.08;;;21.50;99.90;;;;;;5093875;28;20493;-70
2023/07/30 12:16:51;;;;;;;11.93;2.03;;;21.50;99.90;;;;;;5070296;28;273418;-70
2023/07/30 12:19:17;;;;;;;13.07;2.00;;;20.80;99.90;;;;;;5072449;28;20055;-69
2023/07/30 12:21:43;;;;;;;12.05;1.80;;;20.30;99.90;;;;;;5069729;28;267482;-70
2023/07/30 12:24:09;;;;;;;12.82;1.90;;;19.80;99.90;;;;;;5068398;28;20048;-70
2023/07/30 12:26:35;;;;;;;11.50;1.73;;;20.00;99.90;;;;;;5064298;28;266271;-69
2023/07/30 12:29:02;;;;;;;14.02;2.08;;;20.30;99.90;;;;;;5078810;28;20067;-69
2023/07/30 12:31:28;;;;;;;9.35;1.75;;;21.20;99.90;;;;;;5080650;28;20441;-70
2023/07/30 12:33:55;;;;;;;8.98;1.52;;;21.30;99.90;;;;;;5073002;28;273934;-70